createdAt,value
2023-03-28T00:00:31.528Z,12.90
2023-03-28T00:02:58.487Z,12.90
2023-03-28T00:05:25.619Z,12.40
2023-03-28T00:07:54.178Z,14.70
2023-03-28T00:10:21.181Z,14.00
2023-03-28T00:12:48.224Z,14.00
2023-03-28T00:15:15.591Z,12.50
2023-03-28T00:17:43.396Z,15.20
2023-03-28T00:20:11.987Z,13.00
2023-03-28T00:22:39.268Z,11.50
2023-03-28T00:25:07.988Z,12.50
2023-03-28T00:27:36.389Z,13.20
2023-03-28T00:30:05.472Z,13.60
2023-03-28T00:32:32.368Z,15.40
2023-03-28T00:34:59.185Z,13.10
2023-03-28T00:37:26.046Z,13.40
2023-03-28T00:39:54.012Z,24.10
2023-03-28T00:42:24.013Z,31.30
2023-03-28T00:44:56.399Z,19.80
2023-03-28T00:47:39.144Z,15.80
2023-03-28T00:50:22.849Z,15.60
2023-03-28T00:53:05.359Z,17.60
2023-03-28T00:55:44.837Z,16.80
2023-03-28T00:58:17.457Z,15.60
2023-03-28T01:00:47.785Z,16.10
2023-03-28T01:03:18.989Z,19.30
2023-03-28T01:05:48.006Z,18.50
2023-03-28T01:08:22.847Z,14.40
2023-03-28T01:10:50.370Z,18.50
2023-03-28T01:13:21.422Z,15.50
2023-03-28T01:15:51.925Z,16.40
2023-03-28T01:18:22.989Z,20.10
2023-03-28T01:20:58.889Z,17.20
2023-03-28T01:24:10.815Z,16.70
2023-03-28T01:27:04.522Z,16.90
2023-03-28T01:29:31.399Z,15.30
2023-03-28T01:32:17.763Z,16.20
2023-03-28T01:35:07.536Z,18.10
2023-03-28T01:38:02.594Z,13.10
2023-03-28T01:40:38.634Z,12.60
2023-03-28T01:43:25.798Z,12.00
2023-03-28T01:46:11.674Z,13.90
2023-03-28T01:51:37.673Z,16.00
2023-03-28T01:54:13.798Z,13.30
2023-03-28T01:57:12.478Z,11.80
2023-03-28T01:59:45.030Z,15.50
2023-03-28T02:02:37.106Z,14.20
2023-03-28T02:05:24.260Z,13.70
2023-03-28T02:07:52.438Z,15.60
2023-03-28T02:10:30.945Z,16.70
2023-03-28T02:13:11.658Z,12.10
2023-03-28T02:19:25.170Z,16.70
2023-03-28T02:22:39.846Z,16.20
2023-03-28T02:25:26.383Z,16.40
2023-03-28T02:28:25.184Z,14.70
2023-03-28T02:31:09.722Z,12.40
2023-03-28T02:33:39.634Z,14.20
2023-03-28T02:36:30.305Z,14.10
2023-03-28T02:39:15.602Z,11.80
2023-03-28T02:41:54.705Z,14.20
2023-03-28T02:44:33.411Z,13.40
2023-03-28T02:47:39.030Z,11.10
2023-03-28T02:50:28.440Z,12.80
2023-03-28T02:53:22.587Z,15.20
2023-03-28T02:56:15.258Z,13.40
2023-03-28T02:59:08.960Z,19.80
2023-03-28T03:01:37.057Z,11.60
2023-03-28T03:04:04.255Z,16.30
2023-03-28T03:06:31.236Z,12.90
2023-03-28T03:08:58.081Z,17.90
2023-03-28T03:11:28.653Z,12.20
2023-03-28T03:13:57.569Z,9.90
2023-03-28T03:16:24.669Z,12.80
2023-03-28T03:18:52.122Z,10.90
2023-03-28T03:21:19.002Z,10.30
2023-03-28T03:23:45.972Z,9.50
2023-03-28T03:26:13.422Z,14.70
2023-03-28T03:28:44.762Z,11.50
2023-03-28T03:31:11.992Z,14.70
2023-03-28T03:33:39.002Z,16.00
2023-03-28T03:36:06.966Z,11.10
2023-03-28T03:38:34.132Z,15.30
2023-03-28T03:41:01.379Z,12.90
2023-03-28T03:43:28.561Z,14.30
2023-03-28T03:45:56.645Z,14.60
2023-03-28T03:48:23.658Z,14.10
2023-03-28T03:50:55.708Z,17.40
2023-03-28T03:53:22.612Z,22.20
2023-03-28T03:56:14.276Z,17.20
2023-03-28T03:58:52.958Z,17.60
2023-03-28T04:01:19.839Z,22.90
2023-03-28T04:03:48.378Z,58.10
2023-03-28T04:06:21.323Z,89.80
2023-03-28T04:08:48.216Z,49.70
2023-03-28T04:11:20.929Z,28.30
2023-03-28T04:13:47.791Z,26.80
2023-03-28T04:16:15.628Z,26.50
2023-03-28T04:18:51.153Z,21.70
2023-03-28T04:21:25.964Z,47.40
2023-03-28T04:23:54.899Z,55.10
2023-03-28T04:26:50.797Z,40.40
2023-03-28T04:29:25.341Z,31.80
2023-03-28T04:32:13.043Z,23.30
2023-03-28T04:35:03.578Z,20.00
2023-03-28T04:37:30.676Z,21.80
2023-03-28T04:40:01.777Z,23.50
2023-03-28T04:42:42.754Z,24.00
2023-03-28T04:45:19.300Z,24.40
2023-03-28T04:47:48.378Z,42.60
2023-03-28T04:50:19.961Z,40.60
2023-03-28T04:52:46.843Z,105.40
2023-03-28T04:55:16.429Z,178.30
2023-03-28T04:57:43.971Z,81.00
